Time,TemperatureF,DewpointF,PressureIn,WindDirection,WindDirectionDegrees,WindSpeedMPH,WindSpeedGustMPH,Humidity,HourlyPrecipIn,Conditions,Clouds,dailyrainin,SoftwareType,DateUTC
2013-02-28 00:00:00,21.8,15.7,30.46,NNW,336,0.0,0.0,77,0.00,,,0.00,Wunderground v.1.15,2013-02-28 07:00:00,
2013-02-28 00:05:00,21.9,15.8,30.45,NNW,336,0.0,0.0,77,0.00,,,0.00,Wunderground v.1.15,2013-02-28 07:05:00,
2013-02-28 00:15:00,21.9,15.8,30.46,NNW,336,0.0,0.0,77,0.00,,,0.00,Wunderground v.1.15,2013-02-28 07:15:00,
2013-02-28 00:19:00,21.8,15.7,30.46,NNW,336,0.0,0.0,77,0.00,,,0.00,Wunderground v.1.15,2013-02-28 07:19:00,
2013-02-28 00:25:00,21.6,15.2,30.46,NNW,336,0.0,0.0,76,0.00,,,0.00,Wunderground v.1.15,2013-02-28 07:25:00,
2013-02-28 00:30:00,21.4,15.3,30.47,NNW,336,0.0,0.0,77,0.00,,,0.00,Wunderground v.1.15,2013-02-28 07:30:00,
2013-02-28 00:39:00,21.1,15.0,30.48,NNW,336,0.0,0.0,77,0.00,,,0.00,Wunderground v.1.15,2013-02-28 07:39:00,
2013-02-28 00:45:00,20.8,14.7,30.48,NNW,336,0.0,0.0,77,0.00,,,0.00,Wunderground v.1.15,2013-02-28 07:45:00,
2013-02-28 00:50:00,20.6,14.5,30.49,NNW,336,0.0,0.0,77,0.00,,,0.00,Wunderground v.1.15,2013-02-28 07:50:00,
2013-02-28 01:00:00,20.7,14.9,30.49,NNW,336,0.0,0.0,78,0.00,,,0.00,Wunderground v.1.15,2013-02-28 08:00:00,
2013-02-28 01:05:00,20.5,14.7,30.48,NNW,336,0.0,0.0,78,0.00,,,0.00,Wunderground v.1.15,2013-02-28 08:05:00,
2013-02-28 01:15:00,20.4,14.6,30.49,NNW,336,0.0,1.0,78,0.00,,,0.00,Wunderground v.1.15,2013-02-28 08:15:00,
2013-02-28 01:20:00,20.6,15.1,30.49,NNW,336,0.0,0.0,79,0.00,,,0.00,Wunderground v.1.15,2013-02-28 08:20:00,
2013-02-28 01:30:00,20.6,15.1,30.49,NNW,336,0.0,0.0,79,0.00,,,0.00,Wunderground v.1.15,2013-02-28 08:30:00,
2013-02-28 01:35:00,20.6,15.1,30.49,NNW,336,0.0,0.0,79,0.00,,,0.00,Wunderground v.1.15,2013-02-28 08:35:00,
2013-02-28 01:40:00,20.4,14.6,30.49,NNW,336,0.0,0.0,78,0.00,,,0.00,Wunderground v.1.15,2013-02-28 08:40:00,
2013-02-28 01:49:00,19.7,14.0,30.49,NNW,336,0.0,0.0,78,0.00,,,0.00,Wunderground v.1.15,2013-02-28 08:49:00,
2013-02-28 01:54:00,19.7,14.2,30.49,NNW,336,0.0,0.0,79,0.00,,,0.00,Wunderground v.1.15,2013-02-28 08:54:00,
2013-02-28 02:00:00,19.5,14.0,30.49,NNW,336,0.0,1.0,79,0.00,,,0.00,Wunderground v.1.15,2013-02-28 09:00:00,
2013-02-28 02:05:00,19.4,13.9,30.50,NNW,336,1.0,1.0,79,0.00,,,0.00,Wunderground v.1.15,2013-02-28 09:05:00,
2013-02-28 02:15:00,18.9,13.5,30.50,NNW,336,1.0,2.0,79,0.00,,,0.00,Wunderground v.1.15,2013-02-28 09:15:00,
2013-02-28 02:20:00,18.8,13.7,30.50,NNW,336,1.0,1.0,80,0.00,,,0.00,Wunderground v.1.15,2013-02-28 09:20:00,
2013-02-28 02:25:00,18.7,13.6,30.50,NNW,336,0.0,1.0,80,0.00,,,0.00,Wunderground v.1.15,2013-02-28 09:25:00,
2013-02-28 02:35:00,18.3,13.2,30.50,NNW,336,2.0,2.0,80,0.00,,,0.00,Wunderground v.1.15,2013-02-28 09:35:00,
2013-02-28 02:40:00,18.0,12.9,30.50,NNW,336,2.0,2.0,80,0.00,,,0.00,Wunderground v.1.15,2013-02-28 09:40:00,
2013-02-28 02:45:00,17.8,12.7,30.50,NNW,336,1.0,2.0,80,0.00,,,0.00,Wunderground v.1.15,2013-02-28 09:45:00,
2013-02-28 02:50:00,17.4,12.3,30.50,NNW,336,0.0,0.0,80,0.00,,,0.00,Wunderground v.1.15,2013-02-28 09:50:00,
2013-02-28 02:55:00,17.3,12.2,30.51,NNW,336,0.0,0.0,80,0.00,,,0.00,Wunderground v.1.15,2013-02-28 09:55:00,
2013-02-28 03:05:00,16.7,11.6,30.50,NNW,336,0.0,0.0,80,0.00,,,0.00,Wunderground v.1.15,2013-02-28 10:05:00,
2013-02-28 03:14:00,17.0,12.2,30.50,NNW,336,0.0,1.0,81,0.00,,,0.00,Wunderground v.1.15,2013-02-28 10:14:00,
2013-02-28 03:19:00,17.4,12.8,30.50,NNW,336,1.0,2.0,82,0.00,,,0.00,Wunderground v.1.15,2013-02-28 10:19:00,
2013-02-28 03:24:00,17.6,13.0,30.50,NNW,336,1.0,2.0,82,0.00,,,0.00,Wunderground v.1.15,2013-02-28 10:24:00,
2013-02-28 03:30:00,17.6,13.0,30.50,NNW,336,0.0,0.0,82,0.00,,,0.00,Wunderground v.1.15,2013-02-28 10:30:00,
2013-02-28 03:35:00,17.7,13.1,30.50,NNW,336,0.0,0.0,82,0.00,,,0.00,Wunderground v.1.15,2013-02-28 10:35:00,
2013-02-28 03:45:00,17.6,13.0,30.50,NNW,336,0.0,0.0,82,0.00,,,0.00,Wunderground v.1.15,2013-02-28 10:45:00,
2013-02-28 03:50:00,17.3,12.7,30.50,NNW,336,0.0,0.0,82,0.00,,,0.00,Wunderground v.1.15,2013-02-28 10:50:00,
2013-02-28 03:55:00,17.1,12.3,30.50,NNW,336,0.0,0.0,81,0.00,,,0.00,Wunderground v.1.15,2013-02-28 10:55:00,
2013-02-28 04:05:00,17.0,12.5,30.50,NNW,336,0.0,0.0,82,0.00,,,0.00,Wunderground v.1.15,2013-02-28 11:05:00,
2013-02-28 04:14:00,17.4,12.8,30.50,NNW,336,0.0,0.0,82,0.00,,,0.00,Wunderground v.1.15,2013-02-28 11:14:00,
2013-02-28 04:19:00,17.5,12.9,30.50,NNW,336,0.0,0.0,82,0.00,,,0.00,Wunderground v.1.15,2013-02-28 11:19:00,
2013-02-28 04:24:00,17.4,12.8,30.50,NNW,336,0.0,0.0,82,0.00,,,0.00,Wunderground v.1.15,2013-02-28 11:24:00,
2013-02-28 04:29:00,17.3,12.7,30.50,NNW,336,0.0,0.0,82,0.00,,,0.00,Wunderground v.1.15,2013-02-28 11:29:00,
2013-02-28 04:35:00,17.5,12.9,30.51,NNW,336,0.0,0.0,82,0.00,,,0.00,Wunderground v.1.15,2013-02-28 11:35:00,
2013-02-28 04:40:00,17.5,12.9,30.51,NNW,336,0.0,0.0,82,0.00,,,0.00,Wunderground v.1.15,2013-02-28 11:40:00,
2013-02-28 04:45:00,17.4,12.6,30.50,NNW,336,0.0,0.0,81,0.00,,,0.00,Wunderground v.1.15,2013-02-28 11:45:00,
2013-02-28 04:50:00,17.3,12.5,30.51,NNW,336,0.0,0.0,81,0.00,,,0.00,Wunderground v.1.15,2013-02-28 11:50:00,
2013-02-28 04:55:00,17.2,12.4,30.51,NNW,336,0.0,0.0,81,0.00,,,0.00,Wunderground v.1.15,2013-02-28 11:55:00,
2013-02-28 05:05:00,16.8,11.7,30.55,NNW,336,0.0,0.0,80,0.00,,,0.00,Wunderground v.1.15,2013-02-28 12:05:00,
2013-02-28 05:15:00,16.7,11.9,30.55,NNW,336,1.0,2.0,81,0.00,,,0.00,Wunderground v.1.15,2013-02-28 12:15:00,
2013-02-28 05:20:00,16.7,11.9,30.55,NNW,336,1.0,1.0,81,0.00,,,0.00,Wunderground v.1.15,2013-02-28 12:20:00,
2013-02-28 05:25:00,16.7,11.6,30.55,NNW,336,1.0,1.0,80,0.00,,,0.00,Wunderground v.1.15,2013-02-28 12:25:00,
2013-02-28 05:30:00,16.6,11.5,30.55,NNW,336,0.0,0.0,80,0.00,,,0.00,Wunderground v.1.15,2013-02-28 12:30:00,
2013-02-28 05:35:00,16.0,10.6,30.56,NNW,336,0.0,0.0,79,0.00,,,0.00,Wunderground v.1.15,2013-02-28 12:35:00,
2013-02-28 05:44:00,15.1,9.8,30.57,NNW,336,0.0,0.0,79,0.00,,,0.00,Wunderground v.1.15,2013-02-28 12:44:00,
2013-02-28 05:50:00,14.9,9.8,30.58,NNW,336,1.0,1.0,80,0.00,,,0.00,Wunderground v.1.15,2013-02-28 12:50:00,
2013-02-28 05:55:00,15.2,10.1,30.58,NNW,336,1.0,1.0,80,0.00,,,0.00,Wunderground v.1.15,2013-02-28 12:55:00,
2013-02-28 06:00:00,15.4,10.6,30.58,NNW,336,0.0,0.0,81,0.00,,,0.00,Wunderground v.1.15,2013-02-28 13:00:00,
2013-02-28 06:05:00,15.9,11.1,30.59,NNW,336,0.0,0.0,81,0.00,,,0.00,Wunderground v.1.15,2013-02-28 13:05:00,
2013-02-28 06:15:00,16.4,11.6,30.59,NNW,336,0.0,2.0,81,0.00,,,0.00,Wunderground v.1.15,2013-02-28 13:15:00,
2013-02-28 06:20:00,17.1,12.3,30.58,East,101,2.0,4.0,81,0.00,,,0.00,Wunderground v.1.15,2013-02-28 13:20:00,
2013-02-28 06:25:00,18.4,13.3,30.58,East,91,3.0,4.0,80,0.00,,,0.00,Wunderground v.1.15,2013-02-28 13:25:00,
2013-02-28 06:30:00,19.1,13.4,30.57,East,98,3.0,3.0,78,0.00,,,0.00,Wunderground v.1.15,2013-02-28 13:30:00,
2013-02-28 06:35:00,19.7,13.4,30.57,ESE,102,3.0,3.0,76,0.00,,,0.00,Wunderground v.1.15,2013-02-28 13:35:00,
2013-02-28 06:45:00,20.0,12.7,30.57,ESE,103,2.0,3.0,73,0.00,,,0.00,Wunderground v.1.15,2013-02-28 13:45:00,
2013-02-28 06:54:00,20.0,12.4,30.58,ESE,102,2.0,3.0,72,0.00,,,0.00,Wunderground v.1.15,2013-02-28 13:54:00,
2013-02-28 07:00:00,19.9,12.0,30.58,ESE,102,2.0,2.0,71,0.00,,,0.00,Wunderground v.1.15,2013-02-28 14:00:00,
2013-02-28 07:05:00,19.7,11.8,30.59,ESE,103,1.0,2.0,71,0.00,,,0.00,Wunderground v.1.15,2013-02-28 14:05:00,
2013-02-28 07:14:00,19.7,11.8,30.59,ESE,103,0.0,0.0,71,0.00,,,0.00,Wunderground v.1.15,2013-02-28 14:14:00,
2013-02-28 07:20:00,19.5,11.9,30.59,ESE,102,0.0,0.0,72,0.00,,,0.00,Wunderground v.1.15,2013-02-28 14:20:00,
2013-02-28 07:30:00,19.2,12.0,30.60,ESE,102,1.0,2.0,73,0.00,,,0.00,Wunderground v.1.15,2013-02-28 14:30:00,
2013-02-28 07:40:00,19.3,12.4,30.61,ESE,103,1.0,1.0,74,0.00,,,0.00,Wunderground v.1.15,2013-02-28 14:40:00,
2013-02-28 07:50:00,19.7,13.1,30.61,ESE,103,0.0,0.0,75,0.00,,,0.00,Wunderground v.1.15,2013-02-28 14:50:00,
2013-02-28 07:55:00,20.6,13.9,30.61,ESE,103,0.0,2.0,75,0.00,,,0.00,Wunderground v.1.15,2013-02-28 14:55:00,
2013-02-28 08:00:00,21.6,14.3,30.60,ESE,102,1.0,2.0,73,0.00,,,0.00,Wunderground v.1.15,2013-02-28 15:00:00,
2013-02-28 08:05:00,22.7,15.0,30.60,ESE,102,2.0,2.0,72,0.00,,,0.00,Wunderground v.1.15,2013-02-28 15:05:00,
2013-02-28 08:15:00,24.6,15.5,30.61,ESE,113,3.0,5.0,68,0.00,,,0.00,Wunderground v.1.15,2013-02-28 15:15:00,
2013-02-28 08:20:00,25.4,15.6,30.60,ESE,109,4.0,4.0,66,0.00,,,0.00,Wunderground v.1.15,2013-02-28 15:20:00,
2013-02-28 08:25:00,26.1,15.6,30.61,ESE,110,4.0,6.0,64,0.00,,,0.00,Wunderground v.1.15,2013-02-28 15:25:00,
2013-02-28 08:30:00,26.6,14.6,30.60,East,88,5.0,5.0,60,0.00,,,0.00,Wunderground v.1.15,2013-02-28 15:30:00,
2013-02-28 08:35:00,27.0,14.9,30.60,ESE,109,6.0,6.0,60,0.00,,,0.00,Wunderground v.1.15,2013-02-28 15:35:00,
2013-02-28 08:40:00,27.5,14.6,30.60,SSE,164,6.0,7.0,58,0.00,,,0.00,Wunderground v.1.15,2013-02-28 15:40:00,
2013-02-28 08:45:00,27.7,14.0,30.60,SE,126,7.0,7.0,56,0.00,,,0.00,Wunderground v.1.15,2013-02-28 15:45:00,
2013-02-28 08:55:00,28.6,14.5,30.59,ESE,123,8.0,9.0,55,0.00,,,0.00,Wunderground v.1.15,2013-02-28 15:55:00,
2013-02-28 09:00:00,29.1,14.1,30.59,SE,134,6.0,7.0,53,0.00,,,0.00,Wunderground v.1.15,2013-02-28 16:00:00,
2013-02-28 09:05:00,29.5,14.0,30.61,ESE,113,7.0,7.0,52,0.00,,,0.00,Wunderground v.1.15,2013-02-28 16:05:00,
2013-02-28 09:14:00,29.9,13.5,30.61,ESE,122,7.0,10.0,50,0.00,,,0.00,Wunderground v.1.15,2013-02-28 16:14:00,
2013-02-28 09:20:00,29.9,13.5,30.61,ESE,105,9.0,9.0,50,0.00,,,0.00,Wunderground v.1.15,2013-02-28 16:20:00,
2013-02-28 09:25:00,30.2,13.3,30.60,ESE,103,9.0,9.0,49,0.00,,,0.00,Wunderground v.1.15,2013-02-28 16:25:00,
2013-02-28 09:35:00,31.4,13.5,30.59,East,98,7.0,8.0,47,0.00,,,0.00,Wunderground v.1.15,2013-02-28 16:35:00,
2013-02-28 09:40:00,31.8,13.3,30.59,East,95,8.0,8.0,46,0.00,,,0.00,Wunderground v.1.15,2013-02-28 16:40:00,
2013-02-28 09:50:00,32.0,12.5,30.59,ESE,113,9.0,9.0,44,0.00,,,0.00,Wunderground v.1.15,2013-02-28 16:50:00,
2013-02-28 09:55:00,32.1,12.6,30.58,East,99,9.0,9.0,44,0.00,,,0.00,Wunderground v.1.15,2013-02-28 16:55:00,
2013-02-28 10:00:00,32.9,13.9,30.58,ESE,105,8.0,8.0,45,0.00,,,0.00,Wunderground v.1.15,2013-02-28 17:00:00,
2013-02-28 10:05:00,32.9,13.3,30.58,SE,128,8.0,9.0,44,0.00,,,0.00,Wunderground v.1.15,2013-02-28 17:05:00,
2013-02-28 10:15:00,33.2,14.1,30.58,SE,128,8.0,12.0,45,0.00,,,0.00,Wunderground v.1.15,2013-02-28 17:15:00,
2013-02-28 10:20:00,33.9,13.7,30.57,East,83,8.0,10.0,43,0.00,,,0.00,Wunderground v.1.15,2013-02-28 17:20:00,
2013-02-28 10:30:00,34.3,14.1,30.57,SE,135,9.0,9.0,43,0.00,,,0.00,Wunderground v.1.15,2013-02-28 17:30:00,
2013-02-28 10:35:00,34.3,13.6,30.57,SE,126,8.0,9.0,42,0.00,,,0.00,Wunderground v.1.15,2013-02-28 17:35:00,
2013-02-28 10:40:00,34.4,13.6,30.56,ESE,109,6.0,6.0,42,0.00,,,0.00,Wunderground v.1.15,2013-02-28 17:40:00,
2013-02-28 10:45:00,34.7,13.4,30.56,East,86,6.0,7.0,41,0.00,,,0.00,Wunderground v.1.15,2013-02-28 17:45:00,
2013-02-28 10:50:00,35.2,13.8,30.56,SE,140,6.0,6.0,41,0.00,,,0.00,Wunderground v.1.15,2013-02-28 17:50:00,
2013-02-28 10:59:00,35.5,13.5,30.55,East,101,6.0,6.0,40,0.00,,,0.00,Wunderground v.1.15,2013-02-28 17:59:00,
2013-02-28 11:05:00,35.9,13.3,30.56,ESE,118,6.0,9.0,39,0.00,,,0.00,Wunderground v.1.15,2013-02-28 18:05:00,
2013-02-28 11:14:00,36.8,12.9,30.55,SE,124,6.0,6.0,37,0.00,,,0.00,Wunderground v.1.15,2013-02-28 18:14:00,
2013-02-28 11:19:00,37.0,13.7,30.55,SE,126,7.0,7.0,38,0.00,,,0.00,Wunderground v.1.15,2013-02-28 18:19:00,
2013-02-28 11:25:00,37.0,13.1,30.55,ESE,103,6.0,7.0,37,0.00,,,0.00,Wunderground v.1.15,2013-02-28 18:25:00,
2013-02-28 11:30:00,36.7,13.4,30.55,East,98,7.0,7.0,38,0.00,,,0.00,Wunderground v.1.15,2013-02-28 18:30:00,
2013-02-28 11:40:00,36.8,13.5,30.55,ENE,67,6.0,6.0,38,0.00,,,0.00,Wunderground v.1.15,2013-02-28 18:40:00,
2013-02-28 11:45:00,37.6,14.2,30.55,SE,131,5.0,6.0,38,0.00,,,0.00,Wunderground v.1.15,2013-02-28 18:45:00,
2013-02-28 11:50:00,38.2,14.2,30.53,ENE,61,4.0,8.0,37,0.00,,,0.00,Wunderground v.1.15,2013-02-28 18:50:00,
2013-02-28 11:55:00,38.8,14.7,30.53,ENE,78,4.0,8.0,37,0.00,,,0.00,Wunderground v.1.15,2013-02-28 18:55:00,
2013-02-28 12:05:00,39.6,15.4,30.53,East,87,4.0,5.0,37,0.00,,,0.00,Wunderground v.1.15,2013-02-28 19:05:00,
2013-02-28 12:15:00,40.8,15.9,30.52,South,170,4.0,5.0,36,0.00,,,0.00,Wunderground v.1.15,2013-02-28 19:15:00,
2013-02-28 12:20:00,40.8,15.9,30.52,East,88,2.0,3.0,36,0.00,,,0.00,Wunderground v.1.15,2013-02-28 19:20:00,
2013-02-28 12:25:00,40.6,15.7,30.52,SSE,152,2.0,3.0,36,0.00,,,0.00,Wunderground v.1.15,2013-02-28 19:25:00,
2013-02-28 12:35:00,41.9,16.2,30.51,East,95,4.0,7.0,35,0.00,,,0.00,Wunderground v.1.15,2013-02-28 19:35:00,
2013-02-28 12:39:00,41.6,15.9,30.51,ESE,123,5.0,5.0,35,0.00,,,0.00,Wunderground v.1.15,2013-02-28 19:39:00,
2013-02-28 12:44:00,42.1,16.4,30.50,ESE,112,4.0,5.0,35,0.00,,,0.00,Wunderground v.1.15,2013-02-28 19:44:00,
2013-02-28 12:49:00,42.9,16.4,30.49,ENE,78,3.0,3.0,34,0.00,,,0.00,Wunderground v.1.15,2013-02-28 19:49:00,
2013-02-28 12:55:00,43.2,16.0,30.48,East,101,4.0,5.0,33,0.00,,,0.00,Wunderground v.1.15,2013-02-28 19:55:00,
2013-02-28 13:05:00,42.3,15.9,30.48,East,80,5.0,6.0,34,0.00,,,0.00,Wunderground v.1.15,2013-02-28 20:05:00,
2013-02-28 13:15:00,42.3,15.9,30.48,ENE,72,3.0,4.0,34,0.00,,,0.00,Wunderground v.1.15,2013-02-28 20:15:00,
2013-02-28 13:20:00,43.0,16.5,30.48,East,98,3.0,3.0,34,0.00,,,0.00,Wunderground v.1.15,2013-02-28 20:20:00,
2013-02-28 13:25:00,43.5,16.9,30.48,ENE,62,1.0,6.0,34,0.00,,,0.00,Wunderground v.1.15,2013-02-28 20:25:00,
2013-02-28 13:30:00,43.5,16.3,30.47,ENE,68,1.0,1.0,33,0.00,,,0.00,Wunderground v.1.15,2013-02-28 20:30:00,
2013-02-28 13:40:00,43.5,16.3,30.47,NE,46,3.0,5.0,33,0.00,,,0.00,Wunderground v.1.15,2013-02-28 20:40:00,
2013-02-28 13:45:00,43.3,16.1,30.48,NNE,28,3.0,5.0,33,0.00,,,0.00,Wunderground v.1.15,2013-02-28 20:45:00,
2013-02-28 13:50:00,43.8,17.2,30.47,WNW,291,1.0,3.0,34,0.00,,,0.00,Wunderground v.1.15,2013-02-28 20:50:00,
2013-02-28 13:55:00,44.5,17.1,30.46,NE,51,1.0,3.0,33,0.00,,,0.00,Wunderground v.1.15,2013-02-28 20:55:00,
2013-02-28 14:00:00,45.2,17.0,30.46,ENE,67,1.0,2.0,32,0.00,,,0.00,Wunderground v.1.15,2013-02-28 21:00:00,
2013-02-28 14:05:00,45.8,17.6,30.47,NE,46,2.0,2.0,32,0.00,,,0.00,Wunderground v.1.15,2013-02-28 21:05:00,
2013-02-28 14:15:00,45.0,16.9,30.46,ENE,71,1.0,3.0,32,0.00,,,0.00,Wunderground v.1.15,2013-02-28 21:15:00,
2013-02-28 14:24:00,44.5,17.1,30.46,NE,55,3.0,4.0,33,0.00,,,0.00,Wunderground v.1.15,2013-02-28 21:24:00,
2013-02-28 14:29:00,44.7,18.0,30.47,NE,56,2.0,2.0,34,0.00,,,0.00,Wunderground v.1.15,2013-02-28 21:29:00,
2013-02-28 14:34:00,45.3,18.5,30.46,West,261,2.0,7.0,34,0.00,,,0.00,Wunderground v.1.15,2013-02-28 21:34:00,
2013-02-28 14:40:00,44.9,18.2,30.46,WNW,290,4.0,4.0,34,0.00,,,0.00,Wunderground v.1.15,2013-02-28 21:40:00,
2013-02-28 14:45:00,44.2,17.6,30.47,West,271,3.0,4.0,34,0.00,,,0.00,Wunderground v.1.15,2013-02-28 21:45:00,
2013-02-28 14:50:00,44.2,18.2,30.47,WNW,294,2.0,4.0,35,0.00,,,0.00,Wunderground v.1.15,2013-02-28 21:50:00,
2013-02-28 15:00:00,45.8,19.0,30.46,NW,311,3.0,3.0,34,0.00,,,0.00,Wunderground v.1.15,2013-02-28 22:00:00,
2013-02-28 15:05:00,46.0,19.2,30.46,SSW,195,4.0,6.0,34,0.00,,,0.00,Wunderground v.1.15,2013-02-28 22:05:00,
2013-02-28 15:15:00,46.3,19.4,30.46,North,355,3.0,5.0,34,0.00,,,0.00,Wunderground v.1.15,2013-02-28 22:15:00,
2013-02-28 15:20:00,46.8,19.2,30.45,NNE,13,2.0,2.0,33,0.00,,,0.00,Wunderground v.1.15,2013-02-28 22:20:00,
2013-02-28 15:25:00,47.2,19.5,30.44,NNW,328,2.0,2.0,33,0.00,,,0.00,Wunderground v.1.15,2013-02-28 22:25:00,
2013-02-28 16:35:00,46.2,17.9,30.43,WNW,290,6.0,6.0,32,0.00,,,0.00,Wunderground v.1.15,2013-02-28 23:35:00,
2013-02-28 16:40:00,46.5,18.2,30.43,NW,320,5.0,5.0,32,0.00,,,0.00,Wunderground v.1.15,2013-02-28 23:40:00,
2013-02-28 16:49:00,47.0,17.9,30.43,West,278,4.0,6.0,31,0.00,,,0.00,Wunderground v.1.15,2013-02-28 23:49:00,
2013-02-28 16:54:00,46.7,18.4,30.43,NW,304,5.0,6.0,32,0.00,,,0.00,Wunderground v.1.15,2013-02-28 23:54:00,
2013-02-28 17:00:00,45.9,17.7,30.44,West,280,5.0,6.0,32,0.00,,,0.00,Wunderground v.1.15,2013-03-01 00:00:00,
2013-02-28 17:05:00,45.6,18.1,30.44,WNW,299,4.0,6.0,33,0.00,,,0.00,Wunderground v.1.15,2013-03-01 00:05:00,
2013-02-28 17:15:00,45.5,18.0,30.44,WNW,299,3.0,3.0,33,0.00,,,0.00,Wunderground v.1.15,2013-03-01 00:15:00,
2013-02-28 17:20:00,45.4,17.9,30.45,WNW,299,3.0,3.0,33,0.00,,,0.00,Wunderground v.1.15,2013-03-01 00:20:00,
2013-02-28 17:25:00,45.5,18.7,30.44,WNW,299,2.0,3.0,34,0.00,,,0.00,Wunderground v.1.15,2013-03-01 00:25:00,
2013-02-28 17:30:00,45.2,19.1,30.45,WNW,298,2.0,3.0,35,0.00,,,0.00,Wunderground v.1.15,2013-03-01 00:30:00,
2013-02-28 17:35:00,45.0,19.0,30.46,WNW,299,1.0,3.0,35,0.00,,,0.00,Wunderground v.1.15,2013-03-01 00:35:00,
2013-02-28 17:40:00,44.7,18.7,30.46,NW,304,1.0,1.0,35,0.00,,,0.00,Wunderground v.1.15,2013-03-01 00:40:00,
2013-02-28 17:50:00,43.7,17.8,30.47,NW,305,1.0,1.0,35,0.00,,,0.00,Wunderground v.1.15,2013-03-01 00:50:00,
2013-02-28 17:55:00,43.1,17.9,30.48,NW,305,1.0,5.0,36,0.00,,,0.00,Wunderground v.1.15,2013-03-01 00:55:00,
2013-02-28 18:00:00,41.9,17.5,30.48,NW,304,2.0,2.0,37,0.00,,,0.00,Wunderground v.1.15,2013-03-01 01:00:00,
2013-02-28 18:05:00,40.7,17.0,30.47,NW,304,2.0,2.0,38,0.00,,,0.00,Wunderground v.1.15,2013-03-01 01:05:00,
2013-02-28 18:15:00,39.2,17.4,30.49,NW,305,0.0,1.0,41,0.00,,,0.00,Wunderground v.1.15,2013-03-01 01:15:00,
2013-02-28 18:24:00,37.7,17.2,30.49,NW,304,0.0,1.0,43,0.00,,,0.00,Wunderground v.1.15,2013-03-01 01:24:00,
2013-02-28 18:30:00,37.5,17.0,30.48,NW,304,0.0,0.0,43,0.00,,,0.00,Wunderground v.1.15,2013-03-01 01:30:00,
2013-02-28 18:35:00,37.5,17.0,30.49,NW,305,0.0,0.0,43,0.00,,,0.00,Wunderground v.1.15,2013-03-01 01:35:00,
2013-02-28 18:40:00,37.3,16.8,30.50,NW,304,0.0,0.0,43,0.00,,,0.00,Wunderground v.1.15,2013-03-01 01:40:00,
2013-02-28 18:50:00,35.9,17.1,30.50,NW,304,0.0,0.0,46,0.00,,,0.00,Wunderground v.1.15,2013-03-01 01:50:00,
2013-02-28 18:55:00,35.3,16.6,30.51,NW,305,0.0,0.0,46,0.00,,,0.00,Wunderground v.1.15,2013-03-01 01:55:00,
2013-02-28 19:00:00,35.1,16.9,30.51,NW,304,0.0,0.0,47,0.00,,,0.00,Wunderground v.1.15,2013-03-01 02:00:00,
2013-02-28 19:05:00,34.6,16.4,30.50,NW,304,0.0,0.0,47,0.00,,,0.00,Wunderground v.1.15,2013-03-01 02:05:00,
2013-02-28 19:15:00,34.6,16.4,30.50,NW,304,0.0,0.0,47,0.00,,,0.00,Wunderground v.1.15,2013-03-01 02:15:00,
2013-02-28 19:25:00,35.1,16.9,30.50,NW,304,0.0,0.0,47,0.00,,,0.00,Wunderground v.1.15,2013-03-01 02:25:00,
2013-02-28 19:30:00,35.2,17.0,30.50,NW,304,0.0,0.0,47,0.00,,,0.00,Wunderground v.1.15,2013-03-01 02:30:00,
2013-02-28 19:35:00,35.0,16.8,30.50,NW,305,0.0,2.0,47,0.00,,,0.00,Wunderground v.1.15,2013-03-01 02:35:00,
2013-02-28 19:40:00,34.8,17.1,30.50,NW,306,1.0,1.0,48,0.00,,,0.00,Wunderground v.1.15,2013-03-01 02:40:00,
2013-02-28 19:45:00,34.4,16.7,30.51,NW,306,1.0,1.0,48,0.00,,,0.00,Wunderground v.1.15,2013-03-01 02:45:00,
2013-02-28 19:50:00,34.3,17.1,30.50,NW,306,0.0,0.0,49,0.00,,,0.00,Wunderground v.1.15,2013-03-01 02:50:00,
2013-02-28 19:55:00,33.8,17.1,30.50,NW,306,0.0,0.0,50,0.00,,,0.00,Wunderground v.1.15,2013-03-01 02:55:00,
2013-02-28 20:00:00,33.4,16.7,30.52,NW,306,0.0,0.0,50,0.00,,,0.00,Wunderground v.1.15,2013-03-01 03:00:00,
2013-02-28 20:05:00,33.2,17.0,30.48,NW,306,0.0,0.0,51,0.00,,,0.00,Wunderground v.1.15,2013-03-01 03:05:00,
2013-02-28 20:15:00,32.4,17.2,30.49,NW,306,0.0,0.0,53,0.00,,,0.00,Wunderground v.1.15,2013-03-01 03:15:00,
2013-02-28 20:20:00,31.7,17.4,30.49,NW,306,0.0,0.0,55,0.00,,,0.00,Wunderground v.1.15,2013-03-01 03:20:00,
2013-02-28 20:30:00,30.5,17.5,30.49,NW,306,0.0,0.0,58,0.00,,,0.00,Wunderground v.1.15,2013-03-01 03:30:00,
2013-02-28 20:35:00,30.2,17.6,30.50,NW,306,0.0,0.0,59,0.00,,,0.00,Wunderground v.1.15,2013-03-01 03:35:00,
2013-02-28 20:45:00,29.9,18.1,30.50,NW,306,0.0,0.0,61,0.00,,,0.00,Wunderground v.1.15,2013-03-01 03:45:00,
2013-02-28 20:55:00,29.7,17.9,30.51,NW,326,2.0,3.0,61,0.00,,,0.00,Wunderground v.1.15,2013-03-01 03:55:00,
2013-02-28 21:00:00,29.7,18.6,30.51,NNW,330,2.0,3.0,63,0.00,,,0.00,Wunderground v.1.15,2013-03-01 04:00:00,
2013-02-28 21:05:00,29.7,19.0,30.50,NNE,33,1.0,3.0,64,0.00,,,0.00,Wunderground v.1.15,2013-03-01 04:05:00,
2013-02-28 21:15:00,29.9,19.2,30.50,NNE,33,1.0,2.0,64,0.00,,,0.00,Wunderground v.1.15,2013-03-01 04:15:00,
2013-02-28 21:20:00,29.7,19.4,30.50,NNE,33,0.0,0.0,65,0.00,,,0.00,Wunderground v.1.15,2013-03-01 04:20:00,
2013-02-28 21:25:00,29.7,19.4,30.51,NNE,33,0.0,0.0,65,0.00,,,0.00,Wunderground v.1.15,2013-03-01 04:25:00,
2013-02-28 21:30:00,29.7,19.4,30.51,NNE,33,0.0,0.0,65,0.00,,,0.00,Wunderground v.1.15,2013-03-01 04:30:00,
2013-02-28 21:40:00,29.3,19.0,30.51,NNE,33,0.0,0.0,65,0.00,,,0.00,Wunderground v.1.15,2013-03-01 04:40:00,
2013-02-28 21:45:00,28.9,18.6,30.51,NNE,33,0.0,0.0,65,0.00,,,0.00,Wunderground v.1.15,2013-03-01 04:45:00,
2013-02-28 21:50:00,28.4,18.5,30.51,NNE,33,0.0,0.0,66,0.00,,,0.00,Wunderground v.1.15,2013-03-01 04:50:00,
2013-02-28 21:55:00,27.7,17.8,30.52,NNE,33,0.0,0.0,66,0.00,,,0.00,Wunderground v.1.15,2013-03-01 04:55:00,
2013-02-28 22:00:00,27.3,18.1,30.52,NNE,33,0.0,0.0,68,0.00,,,0.00,Wunderground v.1.15,2013-03-01 05:00:00,
2013-02-28 22:05:00,27.3,18.5,30.51,NNE,33,0.0,0.0,69,0.00,,,0.00,Wunderground v.1.15,2013-03-01 05:05:00,
2013-02-28 22:10:00,27.4,18.6,30.51,NNE,33,0.0,0.0,69,0.00,,,0.00,Wunderground v.1.15,2013-03-01 05:10:00,
2013-02-28 22:15:00,27.4,18.6,30.52,NNE,33,0.0,0.0,69,0.00,,,0.00,Wunderground v.1.15,2013-03-01 05:15:00,
2013-02-28 22:20:00,27.4,18.6,30.52,NNE,33,0.0,0.0,69,0.00,,,0.00,Wunderground v.1.15,2013-03-01 05:20:00,
2013-02-28 22:25:00,27.3,18.5,30.52,NNE,33,0.0,0.0,69,0.00,,,0.00,Wunderground v.1.15,2013-03-01 05:25:00,
2013-02-28 22:35:00,26.9,18.4,30.52,NNE,33,0.0,0.0,70,0.00,,,0.00,Wunderground v.1.15,2013-03-01 05:35:00,
2013-02-28 22:40:00,26.8,18.3,30.52,NNE,33,0.0,0.0,70,0.00,,,0.00,Wunderground v.1.15,2013-03-01 05:40:00,
2013-02-28 22:45:00,26.7,18.2,30.52,NNE,33,0.0,0.0,70,0.00,,,0.00,Wunderground v.1.15,2013-03-01 05:45:00,
2013-02-28 22:50:00,26.5,18.0,30.52,NNE,33,1.0,3.0,70,0.00,,,0.00,Wunderground v.1.15,2013-03-01 05:50:00,
2013-02-28 22:55:00,26.0,17.9,30.52,NNE,33,1.0,3.0,71,0.00,,,0.00,Wunderground v.1.15,2013-03-01 05:55:00,
2013-02-28 23:00:00,25.6,17.5,30.52,NNE,33,1.0,1.0,71,0.00,,,0.00,Wunderground v.1.15,2013-03-01 06:00:00,
2013-02-28 23:05:00,25.3,17.5,30.51,NNE,33,0.0,1.0,72,0.00,,,0.00,Wunderground v.1.15,2013-03-01 06:05:00,
2013-02-28 23:15:00,25.2,17.8,30.51,NNE,33,0.0,0.0,73,0.00,,,0.00,Wunderground v.1.15,2013-03-01 06:15:00,
2013-02-28 23:20:00,25.1,17.7,30.51,NNE,33,0.0,0.0,73,0.00,,,0.00,Wunderground v.1.15,2013-03-01 06:20:00,
2013-02-28 23:25:00,25.1,17.7,30.50,NNE,33,0.0,0.0,73,0.00,,,0.00,Wunderground v.1.15,2013-03-01 06:25:00,
2013-02-28 23:30:00,24.9,17.5,30.50,NNE,33,0.0,0.0,73,0.00,,,0.00,Wunderground v.1.15,2013-03-01 06:30:00,
2013-02-28 23:35:00,24.1,16.7,30.50,NNE,33,0.0,0.0,73,0.00,,,0.00,Wunderground v.1.15,2013-03-01 06:35:00,
2013-02-28 23:40:00,23.8,16.7,30.50,NNE,33,0.0,0.0,74,0.00,,,0.00,Wunderground v.1.15,2013-03-01 06:40:00,
2013-02-28 23:45:00,23.6,16.5,30.50,NNE,33,0.0,0.0,74,0.00,,,0.00,Wunderground v.1.15,2013-03-01 06:45:00,
2013-02-28 23:50:00,23.6,16.8,30.50,NNE,33,0.0,0.0,75,0.00,,,0.00,Wunderground v.1.15,2013-03-01 06:50:00,